McCoy, Virginia
Current Conditions -  °F | °C
As of 10:55 AM on Friday 28 Nov 2014 (Local Time) from KPSK Reporting Station
Scattered Clouds Scattered Clouds  
Wind Chill: 23°   Ceiling: Unl
Heat Index: 32°   Visibility: 10mi
Dew Point: 18°   Wind: 10mph
Humidity: 56%   Direction: 290°WNW
Pressure: 30.32"   Gusts: NA
Location:  37.22°N, 80.6°W
Report Text: KPSK 281555Z AUTO 29009KT 10SM SCT034 00/M08 A3032 RMK AO2 T10011080
Loading
Personal Weather Stations






























Interactive Weather Map New forecast layout! Learn more

10-Day Weather Forecast

Advertisements
Track Severe Weather on mobile